Disclaimer

Please do not use the information listed here in-flight or in-navigation, as they are not provided to us by the airports but are provided by volunteers, so they might be outdated.

Search


Regions


Airport information page

No radio frequency information is available.

Airport informations:
Latitude: 25° 13' 05.18" N
Longitude: 110° 02' 21.11" E
Elevation: 570 feet - 174 meters
Operating hours: Remarks
Operating agency: Civil government, landing fees and diplomatic clearance may be required
Timezone: UTC+8
Fuel: Jet fuel avaiable but type is unknown.

Runway information:
01/19 - 9186 x 147 feet< - >2800 x 45 meters

Recent METARs:
ZGKL 190300Z 05003MPS 010V180 9999 SCT040 OVC066 14/08 Q1024 NOSIG
ZGKL 190300Z 05003MPS 010V180 9999 SCT040 OVC066 14/08 Q1024 NOSIG
ZGKL 190400Z VRB02MPS 9999 SCT040 OVC066 14/08 Q1023 NOSIG

Airport on the map: